sensor_id;sensor_type;location;lat;lon;timestamp;pressure;altitude;pressure_sealevel;temperature;humidity
54994;BME280;40891;47.242;8.648;2023-02-02T00:01:36;97390.31;;;5.33;71.06
54994;BME280;40891;47.242;8.648;2023-02-02T00:04:02;97380.47;;;5.32;70.90
54994;BME280;40891;47.242;8.648;2023-02-02T00:06:29;97399.38;;;5.30;71.38
54994;BME280;40891;47.242;8.648;2023-02-02T00:08:56;97391.13;;;5.27;71.24
54994;BME280;40891;47.242;8.648;2023-02-02T00:11:22;97400.16;;;5.31;71.19
54994;BME280;40891;47.242;8.648;2023-02-02T00:13:48;97395.84;;;5.30;70.73
54994;BME280;40891;47.242;8.648;2023-02-02T00:18:58;97392.69;;;5.28;71.04
54994;BME280;40891;47.242;8.648;2023-02-02T00:21:24;97388.34;;;5.30;70.79
54994;BME280;40891;47.242;8.648;2023-02-02T00:23:50;97392.69;;;5.31;70.26
54994;BME280;40891;47.242;8.648;2023-02-02T00:26:16;97391.91;;;5.31;70.67
54994;BME280;40891;47.242;8.648;2023-02-02T00:28:42;97394.66;;;5.27;70.83
54994;BME280;40891;47.242;8.648;2023-02-02T00:31:07;97393.09;;;5.26;71.95
54994;BME280;40891;47.242;8.648;2023-02-02T00:33:33;97384.03;;;5.22;71.63
54994;BME280;40891;47.242;8.648;2023-02-02T00:35:58;97380.88;;;5.24;72.23
54994;BME280;40891;47.242;8.648;2023-02-02T00:38:23;97376.94;;;5.21;72.44
54994;BME280;40891;47.242;8.648;2023-02-02T00:40:49;97372.63;;;5.20;72.14
54994;BME280;40891;47.242;8.648;2023-02-02T00:43:14;97382.81;;;5.16;73.09
54994;BME280;40891;47.242;8.648;2023-02-02T00:45:40;97383.22;;;5.18;72.86
54994;BME280;40891;47.242;8.648;2023-02-02T00:48:06;97378.91;;;5.17;72.52
54994;BME280;40891;47.242;8.648;2023-02-02T00:50:31;97368.28;;;5.16;72.50
54994;BME280;40891;47.242;8.648;2023-02-02T00:52:57;97358.41;;;5.11;73.06
54994;BME280;40891;47.242;8.648;2023-02-02T00:55:25;97365.91;;;5.11;73.66
54994;BME280;40891;47.242;8.648;2023-02-02T00:57:51;97361.19;;;5.08;73.95
54994;BME280;40891;47.242;8.648;2023-02-02T01:00:20;97355.66;;;5.08;74.28
54994;BME280;40891;47.242;8.648;2023-02-02T01:02:48;97369.44;;;5.04;74.19
54994;BME280;40891;47.242;8.648;2023-02-02T01:05:13;97344.22;;;5.02;74.28
54994;BME280;40891;47.242;8.648;2023-02-02T01:07:39;97372.19;;;5.04;74.10
54994;BME280;40891;47.242;8.648;2023-02-02T01:10:07;97358.81;;;5.10;74.19
54994;BME280;40891;47.242;8.648;2023-02-02T01:12:34;97371.81;;;5.13;73.88
54994;BME280;40891;47.242;8.648;2023-02-02T01:15:00;97386.78;;;5.08;74.12
54994;BME280;40891;47.242;8.648;2023-02-02T01:17:26;97377.31;;;5.06;73.79
54994;BME280;40891;47.242;8.648;2023-02-02T01:19:51;97387.53;;;5.09;74.47
54994;BME280;40891;47.242;8.648;2023-02-02T01:22:17;97392.28;;;5.08;74.57
54994;BME280;40891;47.242;8.648;2023-02-02T01:24:42;97401.34;;;5.05;74.44
54994;BME280;40891;47.242;8.648;2023-02-02T01:27:07;97411.19;;;5.06;74.77
54994;BME280;40891;47.242;8.648;2023-02-02T01:29:33;97408.81;;;5.08;74.57
54994;BME280;40891;47.242;8.648;2023-02-02T01:31:58;97405.66;;;5.06;75.45
54994;BME280;40891;47.242;8.648;2023-02-02T01:34:24;97408.81;;;5.05;74.99
54994;BME280;40891;47.242;8.648;2023-02-02T01:36:49;97412.75;;;5.07;74.94
54994;BME280;40891;47.242;8.648;2023-02-02T01:39:14;97410.75;;;5.04;75.17
54994;BME280;40891;47.242;8.648;2023-02-02T01:41:40;97402.50;;;5.04;75.30
54994;BME280;40891;47.242;8.648;2023-02-02T01:47:09;97404.13;;;5.16;74.62
54994;BME280;40891;47.242;8.648;2023-02-02T01:49:35;97411.56;;;5.12;74.11
54994;BME280;40891;47.242;8.648;2023-02-02T01:52:03;97404.09;;;5.26;73.34
54994;BME280;40891;47.242;8.648;2023-02-02T01:54:35;97402.53;;;5.15;74.04
54994;BME280;40891;47.242;8.648;2023-02-02T01:57:06;97404.50;;;5.11;74.48
54994;BME280;40891;47.242;8.648;2023-02-02T01:59:33;97402.13;;;5.06;75.06
54994;BME280;40891;47.242;8.648;2023-02-02T02:01:59;97394.25;;;5.08;74.71
54994;BME280;40891;47.242;8.648;2023-02-02T02:04:26;97388.34;;;5.06;74.96
54994;BME280;40891;47.242;8.648;2023-02-02T02:06:54;97395.78;;;5.02;75.41
54994;BME280;40891;47.242;8.648;2023-02-02T02:09:20;97398.56;;;4.98;75.19
54994;BME280;40891;47.242;8.648;2023-02-02T02:11:45;97396.59;;;4.95;76.36
54994;BME280;40891;47.242;8.648;2023-02-02T02:14:12;97387.94;;;4.97;76.14
54994;BME280;40891;47.242;8.648;2023-02-02T02:42:41;97404.84;;;4.88;78.45
54994;BME280;40891;47.242;8.648;2023-02-02T02:45:09;97398.13;;;4.82;79.41
54994;BME280;40891;47.242;8.648;2023-02-02T02:47:35;97399.28;;;4.74;79.53
54994;BME280;40891;47.242;8.648;2023-02-02T02:50:03;97401.66;;;4.75;80.81
54994;BME280;40891;47.242;8.648;2023-02-02T02:52:29;97405.97;;;4.69;81.60
54994;BME280;40891;47.242;8.648;2023-02-02T02:54:55;97407.16;;;4.68;80.88
54994;BME280;40891;47.242;8.648;2023-02-02T02:57:29;97400.03;;;4.64;82.26
54994;BME280;40891;47.242;8.648;2023-02-02T03:00:25;97404.34;;;4.61;81.84
54994;BME280;40891;47.242;8.648;2023-02-02T03:08:40;97398.81;;;4.54;83.75
54994;BME280;40891;47.242;8.648;2023-02-02T03:11:09;97395.69;;;4.52;83.04
54994;BME280;40891;47.242;8.648;2023-02-02T03:13:35;97390.19;;;4.59;84.47
54994;BME280;40891;47.242;8.648;2023-02-02T03:16:01;97386.66;;;4.52;83.82
54994;BME280;40891;47.242;8.648;2023-02-02T03:18:28;97382.72;;;4.56;83.51
54994;BME280;40891;47.242;8.648;2023-02-02T03:20:54;97378.41;;;4.62;82.80
54994;BME280;40891;47.242;8.648;2023-02-02T03:23:19;97377.63;;;4.58;84.92
54994;BME280;40891;47.242;8.648;2023-02-02T03:25:45;97387.47;;;4.63;84.60
54994;BME280;40891;47.242;8.648;2023-02-02T03:28:11;97389.81;;;4.54;85.59
54994;BME280;40891;47.242;8.648;2023-02-02T03:30:39;97396.50;;;4.56;84.82
54994;BME280;40891;47.242;8.648;2023-02-02T03:33:06;97389.00;;;4.53;85.22
54994;BME280;40891;47.242;8.648;2023-02-02T03:35:32;97403.19;;;4.59;88.02
54994;BME280;40891;47.242;8.648;2023-02-02T03:37:58;97400.81;;;4.54;86.66
54994;BME280;40891;47.242;8.648;2023-02-02T03:40:23;97402.75;;;4.50;87.67
54994;BME280;40891;47.242;8.648;2023-02-02T03:42:48;97406.28;;;4.50;88.32
54994;BME280;40891;47.242;8.648;2023-02-02T03:45:14;97414.94;;;4.49;89.09
54994;BME280;40891;47.242;8.648;2023-02-02T03:47:39;97407.47;;;4.46;89.51
54994;BME280;40891;47.242;8.648;2023-02-02T03:50:06;97418.50;;;4.49;88.23
54994;BME280;40891;47.242;8.648;2023-02-02T03:52:31;97416.50;;;4.50;87.82
54994;BME280;40891;47.242;8.648;2023-02-02T03:54:57;97428.31;;;4.50;88.20
54994;BME280;40891;47.242;8.648;2023-02-02T03:57:22;97425.59;;;4.54;87.47
54994;BME280;40891;47.242;8.648;2023-02-02T03:59:47;97423.59;;;4.54;88.43
54994;BME280;40891;47.242;8.648;2023-02-02T04:02:13;97431.09;;;4.54;87.22
54994;BME280;40891;47.242;8.648;2023-02-02T04:04:38;97435.44;;;4.58;87.49
54994;BME280;40891;47.242;8.648;2023-02-02T04:07:05;97440.56;;;4.56;87.20
54994;BME280;40891;47.242;8.648;2023-02-02T04:09:30;97438.16;;;4.51;87.87
54994;BME280;40891;47.242;8.648;2023-02-02T04:11:56;97436.59;;;4.54;85.07
54994;BME280;40891;47.242;8.648;2023-02-02T04:14:21;97446.44;;;4.51;86.20
54994;BME280;40891;47.242;8.648;2023-02-02T04:16:46;97448.03;;;4.56;88.43
54994;BME280;40891;47.242;8.648;2023-02-02T04:19:12;97448.00;;;4.52;86.30
54994;BME280;40891;47.242;8.648;2023-02-02T04:21:38;97437.38;;;4.51;86.87
54994;BME280;40891;47.242;8.648;2023-02-02T04:24:05;97435.41;;;4.55;88.24
54994;BME280;40891;47.242;8.648;2023-02-02T04:26:31;97436.19;;;4.48;86.99
54994;BME280;40891;47.242;8.648;2023-02-02T04:28:56;97433.88;;;4.61;85.67
54994;BME280;40891;47.242;8.648;2023-02-02T04:31:22;97431.13;;;4.61;88.09
54994;BME280;40891;47.242;8.648;2023-02-02T04:33:47;97442.63;;;4.84;86.19
54994;BME280;40891;47.242;8.648;2023-02-02T04:36:12;97429.59;;;4.70;85.05
54994;BME280;40891;47.242;8.648;2023-02-02T04:38:38;97433.88;;;4.61;86.53
54994;BME280;40891;47.242;8.648;2023-02-02T04:41:08;97436.97;;;4.52;86.74
54994;BME280;40891;47.242;8.648;2023-02-02T04:43:35;97438.16;;;4.55;86.29
54994;BME280;40891;47.242;8.648;2023-02-02T04:46:00;97433.06;;;4.57;86.46
54994;BME280;40891;47.242;8.648;2023-02-02T04:48:25;97438.56;;;4.53;85.42
54994;BME280;40891;47.242;8.648;2023-02-02T04:50:57;97435.44;;;4.58;86.14
54994;BME280;40891;47.242;8.648;2023-02-02T04:53:23;97424.81;;;4.53;86.06
54994;BME280;40891;47.242;8.648;2023-02-02T04:55:49;97428.34;;;4.57;85.17
54994;BME280;40891;47.242;8.648;2023-02-02T04:58:14;97430.72;;;4.59;85.33
54994;BME280;40891;47.242;8.648;2023-02-02T05:00:39;97423.59;;;4.51;84.81
54994;BME280;40891;47.242;8.648;2023-02-02T05:03:05;97421.25;;;4.53;84.86
54994;BME280;40891;47.242;8.648;2023-02-02T05:05:30;97426.78;;;4.56;84.07
54994;BME280;40891;47.242;8.648;2023-02-02T05:07:55;97442.47;;;4.52;84.55
54994;BME280;40891;47.242;8.648;2023-02-02T05:10:21;97434.66;;;4.58;83.89
54994;BME280;40891;47.242;8.648;2023-02-02T05:12:46;97429.94;;;4.62;83.84
54994;BME280;40891;47.242;8.648;2023-02-02T05:15:12;97433.88;;;4.61;83.58
54994;BME280;40891;47.242;8.648;2023-02-02T05:17:37;97430.75;;;4.69;83.99
54994;BME280;40891;47.242;8.648;2023-02-02T05:20:02;97424.44;;;4.62;83.68
54994;BME280;40891;47.242;8.648;2023-02-02T05:22:28;97430.34;;;4.60;84.30
54994;BME280;40891;47.242;8.648;2023-02-02T05:24:53;97435.03;;;4.60;84.90
54994;BME280;40891;47.242;8.648;2023-02-02T05:27:19;97424.44;;;4.62;84.70
54994;BME280;40891;47.242;8.648;2023-02-02T05:29:46;97429.16;;;4.58;84.29
54994;BME280;40891;47.242;8.648;2023-02-02T05:32:11;97429.53;;;4.60;84.48
54994;BME280;40891;47.242;8.648;2023-02-02T05:34:36;97437.81;;;4.56;85.97
54994;BME280;40891;47.242;8.648;2023-02-02T05:37:02;97439.72;;;4.52;85.44
54994;BME280;40891;47.242;8.648;2023-02-02T05:39:27;97434.22;;;4.52;85.28
54994;BME280;40891;47.242;8.648;2023-02-02T05:41:52;97433.47;;;4.52;85.89
54994;BME280;40891;47.242;8.648;2023-02-02T05:44:18;97425.19;;;4.52;85.74
54994;BME280;40891;47.242;8.648;2023-02-02T05:46:43;97431.09;;;4.54;83.75
54994;BME280;40891;47.242;8.648;2023-02-02T05:49:13;97426.38;;;4.51;84.21
54994;BME280;40891;47.242;8.648;2023-02-02T05:51:57;97427.94;;;4.55;84.16
54994;BME280;40891;47.242;8.648;2023-02-02T05:54:23;97420.84;;;4.54;84.36
54994;BME280;40891;47.242;8.648;2023-02-02T05:56:51;97423.63;;;4.58;83.40
54994;BME280;40891;47.242;8.648;2023-02-02T05:59:17;97427.19;;;4.58;83.14
54994;BME280;40891;47.242;8.648;2023-02-02T06:01:46;97422.06;;;4.53;84.66
54994;BME280;40891;47.242;8.648;2023-02-02T06:04:13;97426.03;;;4.63;82.90
54994;BME280;40891;47.242;8.648;2023-02-02T06:06:38;97432.28;;;4.60;82.88
54994;BME280;40891;47.242;8.648;2023-02-02T06:09:05;97428.38;;;4.61;83.75
54994;BME280;40891;47.242;8.648;2023-02-02T06:11:31;97428.75;;;4.59;83.44
54994;BME280;40891;47.242;8.648;2023-02-02T06:13:56;97428.38;;;4.61;82.93
54994;BME280;40891;47.242;8.648;2023-02-02T06:16:22;97425.25;;;4.69;82.16
54994;BME280;40891;47.242;8.648;2023-02-02T06:18:48;97422.88;;;4.64;82.43
54994;BME280;40891;47.242;8.648;2023-02-02T06:21:14;97423.25;;;4.63;82.61
54994;BME280;40891;47.242;8.648;2023-02-02T06:23:39;97438.59;;;4.64;83.16
54994;BME280;40891;47.242;8.648;2023-02-02T06:26:11;97437.03;;;4.63;82.38
54994;BME280;40891;47.242;8.648;2023-02-02T06:28:36;97431.13;;;4.61;83.26
54994;BME280;40891;47.242;8.648;2023-02-02T06:31:03;97426.78;;;4.60;83.41
54994;BME280;40891;47.242;8.648;2023-02-02T06:33:28;97440.94;;;4.62;81.56
54994;BME280;40891;47.242;8.648;2023-02-02T06:35:58;97436.25;;;4.62;83.40
54994;BME280;40891;47.242;8.648;2023-02-02T06:38:23;97430.72;;;4.62;82.61
54994;BME280;40891;47.242;8.648;2023-02-02T06:40:49;97433.88;;;4.64;81.80
54994;BME280;40891;47.242;8.648;2023-02-02T06:43:14;97439.41;;;4.71;82.14
54994;BME280;40891;47.242;8.648;2023-02-02T06:45:40;97448.84;;;4.63;82.79
54994;BME280;40891;47.242;8.648;2023-02-02T06:48:06;97456.28;;;4.59;82.62
54994;BME280;40891;47.242;8.648;2023-02-02T06:50:36;97460.66;;;4.71;81.00
54994;BME280;40891;47.242;8.648;2023-02-02T06:53:01;97463.44;;;4.74;80.48
54994;BME280;40891;47.242;8.648;2023-02-02T06:55:27;97466.16;;;4.71;81.36
54994;BME280;40891;47.242;8.648;2023-02-02T06:57:57;97468.53;;;4.69;81.68
54994;BME280;40891;47.242;8.648;2023-02-02T07:00:22;97472.47;;;4.68;80.82
54994;BME280;40891;47.242;8.648;2023-02-02T07:02:48;97463.00;;;4.69;81.36
54994;BME280;40891;47.242;8.648;2023-02-02T07:05:13;97474.03;;;4.69;81.44
54994;BME280;40891;47.242;8.648;2023-02-02T07:07:39;97474.84;;;4.76;80.26
54994;BME280;40891;47.242;8.648;2023-02-02T07:10:05;97475.25;;;4.78;80.56
54994;BME280;40891;47.242;8.648;2023-02-02T07:12:30;97483.53;;;4.86;80.16
54994;BME280;40891;47.242;8.648;2023-02-02T07:14:56;97481.59;;;4.82;80.41
54994;BME280;40891;47.242;8.648;2023-02-02T07:17:23;97486.28;;;4.86;80.36
54994;BME280;40891;47.242;8.648;2023-02-02T07:19:48;97485.91;;;4.83;79.85
54994;BME280;40891;47.242;8.648;2023-02-02T07:22:14;97478.41;;;4.88;79.87
54994;BME280;40891;47.242;8.648;2023-02-02T07:24:40;97483.53;;;4.86;80.28
54994;BME280;40891;47.242;8.648;2023-02-02T07:27:05;97478.47;;;5.02;79.99
54994;BME280;40891;47.242;8.648;2023-02-02T07:29:31;97484.38;;;4.97;80.54
54994;BME280;40891;47.242;8.648;2023-02-02T07:31:56;97479.28;;;5.06;81.80
54994;BME280;40891;47.242;8.648;2023-02-02T07:34:21;97481.63;;;4.97;79.33
54994;BME280;40891;47.242;8.648;2023-02-02T07:36:47;97483.19;;;4.98;80.51
54994;BME280;40891;47.242;8.648;2023-02-02T07:39:13;97487.19;;;5.11;79.08
54994;BME280;40891;47.242;8.648;2023-02-02T07:41:38;97474.94;;;5.05;79.19
54994;BME280;40891;47.242;8.648;2023-02-02T07:44:04;97480.09;;;5.13;77.19
54994;BME280;40891;47.242;8.648;2023-02-02T07:46:30;97482.44;;;5.08;79.04
54994;BME280;40891;47.242;8.648;2023-02-02T07:48:55;97478.13;;;5.17;76.45
54994;BME280;40891;47.242;8.648;2023-02-02T07:51:22;97476.97;;;5.32;76.64
54994;BME280;40891;47.242;8.648;2023-02-02T07:53:51;97475.75;;;5.12;77.13
54994;BME280;40891;47.242;8.648;2023-02-02T07:56:19;97489.53;;;5.12;76.83
54994;BME280;40891;47.242;8.648;2023-02-02T07:58:45;97494.28;;;5.19;76.93
54994;BME280;40891;47.242;8.648;2023-02-02T08:01:14;97483.25;;;5.19;76.77
54994;BME280;40891;47.242;8.648;2023-02-02T08:03:40;97480.91;;;5.35;75.89
54994;BME280;40891;47.242;8.648;2023-02-02T08:06:22;97488.78;;;5.26;75.97
54994;BME280;40891;47.242;8.648;2023-02-02T08:08:48;97501.38;;;5.30;76.79
54994;BME280;40891;47.242;8.648;2023-02-02T08:11:16;97513.22;;;5.27;76.00
54994;BME280;40891;47.242;8.648;2023-02-02T08:13:42;97513.19;;;5.31;75.43
54994;BME280;40891;47.242;8.648;2023-02-02T08:16:09;97510.06;;;5.36;77.31
54994;BME280;40891;47.242;8.648;2023-02-02T08:18:35;97525.47;;;5.44;75.84
54994;BME280;40891;47.242;8.648;2023-02-02T08:21:02;97517.97;;;5.51;74.65
54994;BME280;40891;47.242;8.648;2023-02-02T08:23:28;97521.16;;;5.61;73.64
54994;BME280;40891;47.242;8.648;2023-02-02T08:25:53;97531.00;;;5.62;75.70
54994;BME280;40891;47.242;8.648;2023-02-02T08:28:20;97528.22;;;5.55;75.03
54994;BME280;40891;47.242;8.648;2023-02-02T08:30:45;97528.63;;;5.53;75.84
54994;BME280;40891;47.242;8.648;2023-02-02T08:33:11;97517.22;;;5.58;74.26
54994;BME280;40891;47.242;8.648;2023-02-02T08:35:41;97511.69;;;5.65;74.97
54994;BME280;40891;47.242;8.648;2023-02-02T08:38:06;97514.50;;;5.86;75.67
54994;BME280;40891;47.242;8.648;2023-02-02T08:40:32;97516.06;;;5.87;72.23
54994;BME280;40891;47.242;8.648;2023-02-02T08:42:57;97520.78;;;5.87;74.08
54994;BME280;40891;47.242;8.648;2023-02-02T08:45:24;97523.13;;;5.81;74.25
54994;BME280;40891;47.242;8.648;2023-02-02T08:47:49;97521.53;;;5.73;74.97
54994;BME280;40891;47.242;8.648;2023-02-02T08:50:15;97529.44;;;5.68;74.55
54994;BME280;40891;47.242;8.648;2023-02-02T08:52:41;97528.25;;;5.76;75.24
54994;BME280;40891;47.242;8.648;2023-02-02T08:55:06;97533.75;;;5.69;73.81
54994;BME280;40891;47.242;8.648;2023-02-02T08:57:32;97532.59;;;5.70;74.34
54994;BME280;40891;47.242;8.648;2023-02-02T08:59:58;97535.75;;;5.79;73.77
54994;BME280;40891;47.242;8.648;2023-02-02T09:02:23;97531.78;;;5.80;72.65
54994;BME280;40891;47.242;8.648;2023-02-02T09:04:49;97535.75;;;5.79;72.43
54994;BME280;40891;47.242;8.648;2023-02-02T09:07:14;97534.59;;;5.97;72.80
54994;BME280;40891;47.242;8.648;2023-02-02T09:09:39;97529.47;;;5.85;72.93
54994;BME280;40891;47.242;8.648;2023-02-02T09:12:05;97526.31;;;5.97;72.26
54994;BME280;40891;47.242;8.648;2023-02-02T09:14:30;97534.19;;;5.92;73.62
54994;BME280;40891;47.242;8.648;2023-02-02T09:16:56;97534.22;;;5.88;72.95
54994;BME280;40891;47.242;8.648;2023-02-02T09:19:21;97537.75;;;5.89;72.61
54994;BME280;40891;47.242;8.648;2023-02-02T09:21:50;97528.28;;;5.90;71.87
54994;BME280;40891;47.242;8.648;2023-02-02T09:24:15;97525.53;;;5.97;71.59
54994;BME280;40891;47.242;8.648;2023-02-02T09:26:44;97534.22;;;5.95;71.65
54994;BME280;40891;47.242;8.648;2023-02-02T09:29:11;97525.16;;;6.05;72.74
54994;BME280;40891;47.242;8.648;2023-02-02T09:31:37;97533.81;;;6.07;71.16
54994;BME280;40891;47.242;8.648;2023-02-02T09:34:08;97530.25;;;6.10;70.52
54994;BME280;40891;47.242;8.648;2023-02-02T09:36:34;97523.97;;;6.17;71.06
54994;BME280;40891;47.242;8.648;2023-02-02T09:39:00;97527.09;;;6.33;70.48
54994;BME280;40891;47.242;8.648;2023-02-02T09:52:40;97542.44;;;6.41;68.55
54994;BME280;40891;47.242;8.648;2023-02-02T09:55:11;97537.34;;;6.43;69.95
54994;BME280;40891;47.242;8.648;2023-02-02T09:57:44;97533.75;;;6.53;70.58
54994;BME280;40891;47.242;8.648;2023-02-02T10:00:28;97544.78;;;6.53;69.09
54994;BME280;40891;47.242;8.648;2023-02-02T10:03:05;97549.56;;;6.53;69.16
54994;BME280;40891;47.242;8.648;2023-02-02T10:05:43;97564.56;;;6.55;68.84
54994;BME280;40891;47.242;8.648;2023-02-02T10:08:17;97556.25;;;6.52;69.19
54994;BME280;40891;47.242;8.648;2023-02-02T10:10:46;97553.88;;;6.61;69.82
54994;BME280;40891;47.242;8.648;2023-02-02T10:13:14;97579.50;;;6.79;69.54
54994;BME280;40891;47.242;8.648;2023-02-02T10:15:57;97582.66;;;6.77;68.70
54994;BME280;40891;47.242;8.648;2023-02-02T10:18:36;97594.09;;;6.79;68.55
54994;BME280;40891;47.242;8.648;2023-02-02T10:21:11;97586.66;;;6.62;68.52
54994;BME280;40891;47.242;8.648;2023-02-02T10:23:41;97599.66;;;6.58;69.53
54994;BME280;40891;47.242;8.648;2023-02-02T10:26:25;97596.09;;;6.58;70.12
54994;BME280;40891;47.242;8.648;2023-02-02T10:29:11;97601.22;;;6.56;69.53
54994;BME280;40891;47.242;8.648;2023-02-02T10:34:43;97607.16;;;6.61;70.08
54994;BME280;40891;47.242;8.648;2023-02-02T10:45:12;97598.88;;;6.54;69.20
54994;BME280;40891;47.242;8.648;2023-02-02T10:47:39;97592.53;;;6.61;70.69
54994;BME280;40891;47.242;8.648;2023-02-02T10:52:36;97602.03;;;6.60;71.00
54994;BME280;40891;47.242;8.648;2023-02-02T11:00:27;97593.72;;;6.74;70.89
54994;BME280;40891;47.242;8.648;2023-02-02T11:02:54;97601.97;;;6.88;69.34
54994;BME280;40891;47.242;8.648;2023-02-02T11:05:22;97589.34;;;6.80;69.42
54994;BME280;40891;47.242;8.648;2023-02-02T11:08:15;97598.06;;;6.71;71.32
54994;BME280;40891;47.242;8.648;2023-02-02T11:10:46;97584.63;;;6.70;71.02
54994;BME280;40891;47.242;8.648;2023-02-02T11:13:18;97594.88;;;6.83;69.04
54994;BME280;40891;47.242;8.648;2023-02-02T11:15:47;97587.38;;;6.77;69.85
54994;BME280;40891;47.242;8.648;2023-02-02T11:18:27;97601.22;;;6.73;69.67
54994;BME280;40891;47.242;8.648;2023-02-02T11:20:53;97586.63;;;6.76;69.90
54994;BME280;40891;47.242;8.648;2023-02-02T11:23:20;97585.41;;;6.77;69.55
54994;BME280;40891;47.242;8.648;2023-02-02T11:25:59;97584.19;;;6.89;69.46
54994;BME280;40891;47.242;8.648;2023-02-02T11:28:33;97575.09;;;6.99;67.69
54994;BME280;40891;47.242;8.648;2023-02-02T11:30:59;97551.22;;;7.40;68.22
54994;BME280;40891;47.242;8.648;2023-02-02T11:33:27;97562.63;;;7.49;66.04
54994;BME280;40891;47.242;8.648;2023-02-02T11:36:04;97549.09;;;7.62;66.29
54994;BME280;40891;47.242;8.648;2023-02-02T11:38:30;97553.22;;;8.02;66.09
54994;BME280;40891;47.242;8.648;2023-02-02T11:40:59;97543.53;;;8.28;64.35
54994;BME280;40891;47.242;8.648;2023-02-02T11:43:33;97536.91;;;8.07;64.59
54994;BME280;40891;47.242;8.648;2023-02-02T11:46:13;97519.72;;;8.34;63.33
54994;BME280;40891;47.242;8.648;2023-02-02T11:48:49;97533.78;;;8.53;64.24
54994;BME280;40891;47.242;8.648;2023-02-02T11:51:21;97527.75;;;8.62;63.14
54994;BME280;40891;47.242;8.648;2023-02-02T11:53:48;97539.69;;;8.59;64.10
54994;BME280;40891;47.242;8.648;2023-02-02T11:56:19;97535.16;;;8.35;63.40
54994;BME280;40891;47.242;8.648;2023-02-02T11:58:53;97536.19;;;8.48;63.90
54994;BME280;40891;47.242;8.648;2023-02-02T12:01:36;97542.84;;;8.57;62.24
54994;BME280;40891;47.242;8.648;2023-02-02T12:06:41;97552.16;;;8.37;63.06
54994;BME280;40891;47.242;8.648;2023-02-02T12:09:12;97530.78;;;8.34;63.90
54994;BME280;40891;47.242;8.648;2023-02-02T12:11:48;97545.50;;;8.27;64.78
54994;BME280;40891;47.242;8.648;2023-02-02T12:17:30;97546.28;;;8.28;65.14
54994;BME280;40891;47.242;8.648;2023-02-02T12:20:28;97550.25;;;8.27;65.51
54994;BME280;40891;47.242;8.648;2023-02-02T12:23:29;97538.38;;;8.22;64.60
54994;BME280;40891;47.242;8.648;2023-02-02T12:29:14;97532.44;;;8.28;64.11
54994;BME280;40891;47.242;8.648;2023-02-02T12:50:31;97511.41;;;8.34;65.26
54994;BME280;40891;47.242;8.648;2023-02-02T12:53:36;97509.88;;;8.26;64.53
54994;BME280;40891;47.242;8.648;2023-02-02T12:56:31;97517.59;;;8.00;65.02
54994;BME280;40891;47.242;8.648;2023-02-02T12:59:14;97519.94;;;8.05;65.16
54994;BME280;40891;47.242;8.648;2023-02-02T13:04:36;97531.38;;;8.07;64.69
54994;BME280;40891;47.242;8.648;2023-02-02T13:12:25;97518.91;;;8.33;63.74
54994;BME280;40891;47.242;8.648;2023-02-02T13:14:56;97520.88;;;8.36;63.76
54994;BME280;40891;47.242;8.648;2023-02-02T13:17:38;97519.34;;;8.32;62.09
54994;BME280;40891;47.242;8.648;2023-02-02T13:20:17;97524.97;;;8.17;62.56
54994;BME280;40891;47.242;8.648;2023-02-02T13:22:46;97527.31;;;8.22;62.87
54994;BME280;40891;47.242;8.648;2023-02-02T13:25:45;97520.94;;;8.33;63.33
54994;BME280;40891;47.242;8.648;2023-02-02T13:28:23;97522.91;;;8.29;62.25
54994;BME280;40891;47.242;8.648;2023-02-02T13:30:51;97537.28;;;8.09;62.59
54994;BME280;40891;47.242;8.648;2023-02-02T13:33:27;97540.41;;;8.18;63.15
54994;BME280;40891;47.242;8.648;2023-02-02T13:35:56;97529.81;;;8.06;63.41
54994;BME280;40891;47.242;8.648;2023-02-02T13:38:25;97522.16;;;8.28;63.86
54994;BME280;40891;47.242;8.648;2023-02-02T13:40:54;97513.28;;;8.44;63.53
54994;BME280;40891;47.242;8.648;2023-02-02T13:46:14;97514.53;;;8.36;62.67
54994;BME280;40891;47.242;8.648;2023-02-02T13:52:02;97515.00;;;8.23;63.90
54994;BME280;40891;47.242;8.648;2023-02-02T14:02:27;97514.44;;;8.02;64.34
54994;BME280;40891;47.242;8.648;2023-02-02T14:04:56;97527.97;;;7.86;64.51
54994;BME280;40891;47.242;8.648;2023-02-02T14:07:41;97525.69;;;7.77;64.05
54994;BME280;40891;47.242;8.648;2023-02-02T14:10:29;97528.47;;;7.77;64.58
54994;BME280;40891;47.242;8.648;2023-02-02T14:13:12;97535.56;;;7.78;64.28
54994;BME280;40891;47.242;8.648;2023-02-02T14:15:59;97544.22;;;7.84;64.57
54994;BME280;40891;47.242;8.648;2023-02-02T14:26:56;97560.50;;;7.78;64.98
54994;BME280;40891;47.242;8.648;2023-02-02T14:34:28;97561.25;;;7.79;64.63
54994;BME280;40891;47.242;8.648;2023-02-02T14:48:01;97573.59;;;7.71;65.54
54994;BME280;40891;47.242;8.648;2023-02-02T14:50:53;97564.91;;;7.69;65.89
54994;BME280;40891;47.242;8.648;2023-02-02T14:56:02;97575.19;;;7.68;65.13
54994;BME280;40891;47.242;8.648;2023-02-02T14:58:32;97569.66;;;7.68;65.80
54994;BME280;40891;47.242;8.648;2023-02-02T15:06:34;97599.72;;;7.66;66.91
54994;BME280;40891;47.242;8.648;2023-02-02T15:09:35;97597.69;;;7.70;66.58
54994;BME280;40891;47.242;8.648;2023-02-02T15:14:49;97592.63;;;7.58;65.99
54994;BME280;40891;47.242;8.648;2023-02-02T15:17:33;97600.16;;;7.54;66.95
54994;BME280;40891;47.242;8.648;2023-02-02T15:22:34;97612.81;;;7.48;68.00
54994;BME280;40891;47.242;8.648;2023-02-02T15:25:11;97610.44;;;7.53;67.04
54994;BME280;40891;47.242;8.648;2023-02-02T15:27:38;97613.63;;;7.52;66.94
54994;BME280;40891;47.242;8.648;2023-02-02T15:30:07;97626.66;;;7.48;67.82
54994;BME280;40891;47.242;8.648;2023-02-02T15:32:34;97625.47;;;7.45;68.72
54994;BME280;40891;47.242;8.648;2023-02-02T15:35:02;97629.06;;;7.39;68.38
54994;BME280;40891;47.242;8.648;2023-02-02T15:37:36;97625.50;;;7.42;68.29
54994;BME280;40891;47.242;8.648;2023-02-02T15:40:14;97634.22;;;7.37;67.92
54994;BME280;40891;47.242;8.648;2023-02-02T15:42:42;97628.31;;;7.35;68.33
54994;BME280;40891;47.242;8.648;2023-02-02T15:47:54;97631.84;;;7.42;67.58
54994;BME280;40891;47.242;8.648;2023-02-02T15:50:20;97633.47;;;7.33;68.99
54994;BME280;40891;47.242;8.648;2023-02-02T15:52:47;97646.06;;;7.34;69.13
54994;BME280;40891;47.242;8.648;2023-02-02T15:55:40;97638.56;;;7.38;68.92
54994;BME280;40891;47.242;8.648;2023-02-02T16:01:04;97653.94;;;7.46;68.72